createdAt,value
2019-05-12T00:00:07.848Z,1021.01
2019-05-12T00:01:08.628Z,1021.07
2019-05-12T00:02:07.675Z,1021.04
2019-05-12T00:03:08.479Z,1021.06
2019-05-12T00:04:08.097Z,1021.04
2019-05-12T00:05:08.564Z,1021.04
2019-05-12T00:06:08.619Z,1021.06
2019-05-12T00:07:08.544Z,1021.06
2019-05-12T00:08:08.211Z,1021.03
2019-05-12T00:09:08.184Z,1021.08
2019-05-12T00:10:05.938Z,1021.05
2019-05-12T00:11:05.892Z,1021.07
2019-05-12T00:12:08.126Z,1021.10
2019-05-12T00:13:08.252Z,1021.09
2019-05-12T00:14:05.762Z,1021.14
2019-05-12T00:15:07.638Z,1021.12
2019-05-12T00:16:05.658Z,1021.08
2019-05-12T00:17:05.653Z,1021.09
2019-05-12T00:18:05.580Z,1021.11
2019-05-12T00:19:05.537Z,1021.14
2019-05-12T00:20:05.496Z,1021.12
2019-05-12T00:21:05.467Z,1021.11
2019-05-12T00:22:07.553Z,1021.11
2019-05-12T00:23:19.909Z,1021.14
2019-05-12T00:24:05.303Z,1021.17
2019-05-12T00:25:05.274Z,1021.16
2019-05-12T00:26:05.246Z,1021.18
2019-05-12T00:27:05.173Z,1021.19
2019-05-12T00:28:05.135Z,1021.22
2019-05-12T00:29:05.098Z,1021.25
2019-05-12T00:30:05.094Z,1021.30
2019-05-12T00:31:05.021Z,1021.29
2019-05-12T00:32:04.954Z,1021.34
2019-05-12T00:33:04.906Z,1021.32
2019-05-12T00:34:04.862Z,1021.35
2019-05-12T00:35:04.849Z,1021.36
2019-05-12T00:36:04.774Z,1021.38
2019-05-12T00:37:04.744Z,1021.36
2019-05-12T00:38:04.690Z,1021.36
2019-05-12T00:39:04.650Z,1021.37
2019-05-12T00:40:04.593Z,1021.37
2019-05-12T00:41:04.574Z,1021.37
2019-05-12T00:42:04.504Z,1021.37
2019-05-12T00:43:04.467Z,1021.38
2019-05-12T00:44:04.419Z,1021.42
2019-05-12T00:45:04.366Z,1021.45
2019-05-12T00:46:04.349Z,1021.47
2019-05-12T00:47:04.288Z,1021.51
2019-05-12T00:48:04.238Z,1021.54
2019-05-12T00:49:04.204Z,1021.53
2019-05-12T00:50:04.152Z,1021.54
2019-05-12T00:51:04.135Z,1021.54
2019-05-12T00:52:04.073Z,1021.57
2019-05-12T00:53:04.024Z,1021.60
2019-05-12T00:54:03.969Z,1021.64
2019-05-12T00:55:03.927Z,1021.62
2019-05-12T00:56:03.914Z,1021.64
2019-05-12T00:57:03.876Z,1021.70
2019-05-12T00:58:03.802Z,1021.69
2019-05-12T00:59:03.754Z,1021.75
2019-05-12T01:00:03.703Z,1021.77
2019-05-12T01:01:03.666Z,1021.81
2019-05-12T01:02:03.625Z,1021.82
2019-05-12T01:03:03.610Z,1021.85
2019-05-12T01:04:03.567Z,1021.85
2019-05-12T01:05:03.484Z,1021.84
2019-05-12T01:06:03.439Z,1021.86
2019-05-12T01:07:03.419Z,1021.84
2019-05-12T01:08:03.353Z,1021.83
2019-05-12T01:09:03.345Z,1021.84
2019-05-12T01:10:05.001Z,1021.88
2019-05-12T01:11:03.226Z,1021.82
2019-05-12T01:12:03.175Z,1021.85
2019-05-12T01:13:03.148Z,1021.83
2019-05-12T01:14:03.113Z,1021.86
2019-05-12T01:15:03.047Z,1021.87
2019-05-12T01:16:03.002Z,1021.87
2019-05-12T01:17:02.951Z,1021.88
2019-05-12T01:18:02.903Z,1021.89
2019-05-12T01:19:02.862Z,1021.92
2019-05-12T01:20:02.855Z,1021.91
2019-05-12T01:21:02.775Z,1021.98
2019-05-12T01:22:02.730Z,1021.96
2019-05-12T01:23:02.690Z,1021.98
2019-05-12T01:24:03.524Z,1021.99
2019-05-12T01:25:02.590Z,1022.04
2019-05-12T01:26:02.611Z,1022.01
2019-05-12T01:27:02.506Z,1022.08
2019-05-12T01:28:02.459Z,1022.09
2019-05-12T01:29:02.423Z,1022.15
2019-05-12T01:30:02.403Z,1022.15
2019-05-12T01:31:02.375Z,1022.20
2019-05-12T01:32:02.289Z,1022.18
2019-05-12T01:33:02.247Z,1022.22
2019-05-12T01:34:02.212Z,1022.24
2019-05-12T01:35:02.162Z,1022.28
2019-05-12T01:36:02.119Z,1022.31
2019-05-12T01:37:02.108Z,1022.34
2019-05-12T01:38:02.022Z,1022.37
2019-05-12T01:39:01.990Z,1022.35
2019-05-12T01:40:01.929Z,1022.35
2019-05-12T01:41:01.898Z,1022.34
2019-05-12T01:42:01.848Z,1022.32
2019-05-12T01:43:01.837Z,1022.34
2019-05-12T01:44:01.773Z,1022.38
2019-05-12T01:45:01.736Z,1022.39
2019-05-12T01:46:01.672Z,1022.39
2019-05-12T01:47:01.627Z,1022.39
2019-05-12T01:48:01.583Z,1022.41
2019-05-12T01:49:01.558Z,1022.39
2019-05-12T01:50:01.498Z,1022.42
2019-05-12T01:51:01.441Z,1022.45
2019-05-12T01:52:01.406Z,1022.49
2019-05-12T01:53:01.403Z,1022.45
2019-05-12T01:54:13.606Z,1022.49
2019-05-12T01:55:01.281Z,1022.51
2019-05-12T01:56:01.230Z,1022.50
2019-05-12T01:57:01.181Z,1022.49
2019-05-12T01:58:01.137Z,1022.52
2019-05-12T01:59:01.122Z,1022.54
2019-05-12T02:00:01.050Z,1022.57
2019-05-12T02:01:02.915Z,1022.56
2019-05-12T02:02:00.968Z,1022.56
2019-05-12T02:03:00.921Z,1022.59
2019-05-12T02:04:00.903Z,1022.57
2019-05-12T02:05:00.832Z,1022.58
2019-05-12T02:06:00.814Z,1022.60
2019-05-12T02:07:00.745Z,1022.61
2019-05-12T02:08:00.706Z,1022.64
2019-05-12T02:09:00.650Z,1022.65
2019-05-12T02:10:00.612Z,1022.69
2019-05-12T02:11:00.570Z,1022.73
2019-05-12T02:12:00.550Z,1022.75
2019-05-12T02:13:00.495Z,1022.80
2019-05-12T02:14:00.436Z,1022.86
2019-05-12T02:15:00.392Z,1022.84
2019-05-12T02:16:00.357Z,1022.88
2019-05-12T02:17:00.328Z,1022.87
2019-05-12T02:18:00.292Z,1022.90
2019-05-12T02:19:00.220Z,1022.89
2019-05-12T02:20:00.178Z,1022.94
2019-05-12T02:21:00.127Z,1022.95
2019-05-12T02:22:00.092Z,1022.94
2019-05-12T02:23:00.044Z,1022.95
2019-05-12T02:24:00.024Z,1022.95
2019-05-12T02:25:00.012Z,1022.95
2019-05-12T02:25:59.922Z,1022.92
2019-05-12T02:26:59.870Z,1022.95
2019-05-12T02:27:59.824Z,1022.95
2019-05-12T02:28:59.800Z,1022.94
2019-05-12T02:29:59.729Z,1022.98
2019-05-12T02:30:59.693Z,1022.96
2019-05-12T02:31:59.688Z,1022.99
2019-05-12T02:32:59.979Z,1023.01
2019-05-12T02:33:59.575Z,1023.03
2019-05-12T02:34:59.523Z,1023.05
2019-05-12T02:35:59.472Z,1023.06
2019-05-12T02:36:59.439Z,1023.10
2019-05-12T02:37:59.421Z,1023.10
2019-05-12T02:38:59.375Z,1023.12
2019-05-12T02:39:59.306Z,1023.13
2019-05-12T02:40:59.271Z,1023.13
2019-05-12T02:41:59.209Z,1023.11
2019-05-12T02:42:59.210Z,1023.14
2019-05-12T02:43:59.129Z,1023.13
2019-05-12T02:44:59.098Z,1023.11
2019-05-12T02:45:59.041Z,1023.18
2019-05-12T02:46:59.001Z,1023.17
2019-05-12T02:47:58.954Z,1023.17
2019-05-12T02:48:58.948Z,1023.18
2019-05-12T02:49:58.863Z,1023.21
2019-05-12T02:50:58.851Z,1023.22
2019-05-12T02:51:58.783Z,1023.22
2019-05-12T02:52:58.743Z,1023.22
2019-05-12T02:53:58.697Z,1023.23
2019-05-12T02:55:00.747Z,1023.22
2019-05-12T02:55:58.607Z,1023.23
2019-05-12T02:56:58.564Z,1023.29
2019-05-12T02:57:58.521Z,1023.28
2019-05-12T02:58:58.472Z,1023.29
2019-05-12T02:59:58.451Z,1023.26
2019-05-12T03:00:58.414Z,1023.32
2019-05-12T03:01:58.336Z,1023.30
2019-05-12T03:02:58.312Z,1023.32
2019-05-12T03:03:58.248Z,1023.34
2019-05-12T03:04:58.218Z,1023.34
2019-05-12T03:05:58.192Z,1023.34
2019-05-12T03:07:02.051Z,1023.38
2019-05-12T03:07:58.073Z,1023.38
2019-05-12T03:08:58.039Z,1023.40
2019-05-12T03:09:58.011Z,1023.43
2019-05-12T03:10:57.989Z,1023.41
2019-05-12T03:11:57.913Z,1023.45
2019-05-12T03:12:57.858Z,1023.43
2019-05-12T03:13:57.812Z,1023.45
2019-05-12T03:14:57.790Z,1023.48
2019-05-12T03:15:57.734Z,1023.49
2019-05-12T03:16:57.713Z,1023.54
2019-05-12T03:17:57.636Z,1023.49
2019-05-12T03:18:57.591Z,1023.49
2019-05-12T03:19:57.567Z,1023.54
2019-05-12T03:20:57.516Z,1023.55
2019-05-12T03:21:57.496Z,1023.57
2019-05-12T03:22:57.419Z,1023.58
2019-05-12T03:23:57.394Z,1023.61
2019-05-12T03:25:11.318Z,1023.59
2019-05-12T03:25:57.315Z,1023.62
2019-05-12T03:26:57.248Z,1023.69
2019-05-12T03:27:57.232Z,1023.71
2019-05-12T03:28:57.161Z,1023.75
2019-05-12T03:29:57.115Z,1023.73
2019-05-12T03:30:58.276Z,1023.74
2019-05-12T03:31:57.579Z,1023.70
2019-05-12T03:32:58.522Z,1023.74
2019-05-12T03:33:59.867Z,1023.72
2019-05-12T03:34:58.217Z,1023.74
2019-05-12T03:36:00.873Z,1023.75
2019-05-12T03:36:59.033Z,1023.79
2019-05-12T03:37:56.774Z,1023.79
2019-05-12T03:38:56.760Z,1023.81
2019-05-12T03:39:56.676Z,1023.81
2019-05-12T03:40:56.628Z,1023.84
2019-05-12T03:41:56.588Z,1023.86
2019-05-12T03:42:56.545Z,1023.88
2019-05-12T03:43:56.527Z,1023.88
2019-05-12T03:44:56.470Z,1023.93
2019-05-12T03:45:56.436Z,1023.97
2019-05-12T03:46:56.375Z,1024.02
2019-05-12T03:47:56.348Z,1024.01
2019-05-12T03:48:56.282Z,1024.03
2019-05-12T03:49:56.258Z,1024.05
2019-05-12T03:50:56.179Z,1024.09
2019-05-12T03:51:56.146Z,1024.10
2019-05-12T03:52:56.748Z,1024.09
2019-05-12T03:53:56.075Z,1024.10
2019-05-12T03:54:56.290Z,1024.12
2019-05-12T03:55:55.985Z,1024.17
2019-05-12T03:56:55.930Z,1024.17
2019-05-12T03:57:55.895Z,1024.16
2019-05-12T03:58:55.855Z,1024.17
2019-05-12T03:59:55.814Z,1024.20
2019-05-12T04:00:55.765Z,1024.18
2019-05-12T04:01:55.717Z,1024.16
2019-05-12T04:02:55.803Z,1024.23
2019-05-12T04:03:55.612Z,1024.22
2019-05-12T04:04:55.714Z,1024.24
2019-05-12T04:05:55.599Z,1024.33
2019-05-12T04:06:55.488Z,1024.35
2019-05-12T04:07:55.442Z,1024.30
2019-05-12T04:08:59.754Z,1024.30
2019-05-12T04:09:55.345Z,1024.32
2019-05-12T04:10:55.333Z,1024.32
2019-05-12T04:11:55.268Z,1024.34
2019-05-12T04:12:55.214Z,1024.36
2019-05-12T04:13:55.317Z,1024.34
2019-05-12T04:14:55.308Z,1024.37
2019-05-12T04:15:55.807Z,1024.42
2019-05-12T04:16:55.308Z,1024.43
2019-05-12T04:17:55.023Z,1024.46
2019-05-12T04:18:55.367Z,1024.48
2019-05-12T04:19:55.092Z,1024.50
2019-05-12T04:20:54.868Z,1024.47
2019-05-12T04:21:54.859Z,1024.53
2019-05-12T04:22:54.890Z,1024.54
2019-05-12T04:23:55.030Z,1024.58
2019-05-12T04:24:55.297Z,1024.56
2019-05-12T04:26:07.386Z,1024.58
2019-05-12T04:26:55.273Z,1024.59
2019-05-12T04:27:54.554Z,1024.57
2019-05-12T04:28:54.934Z,1024.63
2019-05-12T04:29:54.809Z,1024.59
2019-05-12T04:30:54.623Z,1024.63
2019-05-12T04:31:54.571Z,1024.65
2019-05-12T04:32:55.302Z,1024.66
2019-05-12T04:33:54.885Z,1024.68
2019-05-12T04:34:55.154Z,1024.71
2019-05-12T04:35:55.344Z,1024.72
2019-05-12T04:36:55.381Z,1024.76
2019-05-12T04:37:55.366Z,1024.79
2019-05-12T04:38:55.610Z,1024.84
2019-05-12T04:39:55.396Z,1024.86
2019-05-12T04:40:55.290Z,1024.84
2019-05-12T04:41:55.202Z,1024.88
2019-05-12T04:42:54.905Z,1024.85
2019-05-12T04:43:55.114Z,1024.90
2019-05-12T04:44:55.259Z,1024.90
2019-05-12T04:45:54.872Z,1024.95
2019-05-12T04:46:55.474Z,1024.98
2019-05-12T04:47:55.264Z,1025.02
2019-05-12T04:48:54.579Z,1025.03
2019-05-12T04:49:54.613Z,1025.00
2019-05-12T04:50:54.824Z,1025.06
2019-05-12T04:51:54.571Z,1025.10
2019-05-12T04:52:54.882Z,1025.13
2019-05-12T04:53:54.855Z,1025.11
2019-05-12T04:54:55.203Z,1025.12
2019-05-12T04:56:07.458Z,1025.15
2019-05-12T04:56:55.141Z,1025.17
2019-05-12T04:57:54.561Z,1025.14
2019-05-12T04:58:54.631Z,1025.17
2019-05-12T04:59:54.349Z,1025.20
2019-05-12T05:00:54.117Z,1025.20
2019-05-12T05:01:54.077Z,1025.21
2019-05-12T05:02:54.425Z,1025.22
2019-05-12T05:03:54.529Z,1025.25
2019-05-12T05:04:54.630Z,1025.27
2019-05-12T05:05:54.919Z,1025.22
2019-05-12T05:06:55.030Z,1025.20
2019-05-12T05:07:54.820Z,1025.30
2019-05-12T05:08:54.437Z,1025.29
2019-05-12T05:09:54.907Z,1025.31
2019-05-12T05:10:54.783Z,1025.28
2019-05-12T05:11:54.331Z,1025.34
2019-05-12T05:12:54.116Z,1025.35
2019-05-12T05:13:54.838Z,1025.34
2019-05-12T05:14:54.829Z,1025.41
2019-05-12T05:15:54.905Z,1025.47
2019-05-12T05:16:54.222Z,1025.51
2019-05-12T05:17:54.479Z,1025.53
2019-05-12T05:18:54.313Z,1025.59
2019-05-12T05:19:53.311Z,1025.60
2019-05-12T05:20:54.184Z,1025.61
2019-05-12T05:21:54.160Z,1025.63
2019-05-12T05:22:54.097Z,1025.64
2019-05-12T05:23:53.677Z,1025.65
2019-05-12T05:24:53.580Z,1025.70
2019-05-12T05:25:53.831Z,1025.74
2019-05-12T05:26:53.944Z,1025.74
2019-05-12T05:27:53.293Z,1025.79
2019-05-12T05:28:54.096Z,1025.80
2019-05-12T05:29:54.197Z,1025.82
2019-05-12T05:30:53.470Z,1025.87
2019-05-12T05:31:53.422Z,1025.90
2019-05-12T05:32:53.578Z,1025.91
2019-05-12T05:33:53.523Z,1025.93
2019-05-12T05:34:55.827Z,1025.94
2019-05-12T05:35:54.122Z,1025.93
2019-05-12T05:36:57.212Z,1025.94
2019-05-12T05:37:53.888Z,1025.92
2019-05-12T05:38:59.571Z,1025.94
2019-05-12T05:39:51.459Z,1025.98
2019-05-12T05:40:53.970Z,1026.04
2019-05-12T05:41:51.380Z,1026.04
2019-05-12T05:42:51.337Z,1026.04
2019-05-12T05:43:54.255Z,1026.12
2019-05-12T05:44:51.250Z,1026.13
2019-05-12T05:45:54.514Z,1026.16
2019-05-12T05:46:53.873Z,1026.18
2019-05-12T05:47:51.130Z,1026.22
2019-05-12T05:48:51.083Z,1026.23
2019-05-12T05:49:51.046Z,1026.24
2019-05-12T05:50:50.999Z,1026.23
2019-05-12T05:51:55.095Z,1026.26
2019-05-12T05:52:50.944Z,1026.21
2019-05-12T05:53:51.970Z,1026.20
2019-05-12T05:54:53.116Z,1026.18
2019-05-12T05:55:56.249Z,1026.21
2019-05-12T05:56:59.696Z,1026.24
2019-05-12T05:57:50.708Z,1026.24
2019-05-12T05:58:54.135Z,1026.20
2019-05-12T05:59:50.624Z,1026.27
2019-05-12T06:00:57.093Z,1026.27
2019-05-12T06:01:54.301Z,1026.28
2019-05-12T06:02:50.502Z,1026.30
2019-05-12T06:03:50.462Z,1026.54
2019-05-12T06:04:54.074Z,1026.37
2019-05-12T06:05:50.407Z,1026.40
2019-05-12T06:06:52.780Z,1026.76
2019-05-12T06:07:50.310Z,1026.76
2019-05-12T06:08:50.255Z,1026.81
2019-05-12T06:09:50.236Z,1026.49
2019-05-12T06:10:50.195Z,1026.67
2019-05-12T06:11:50.157Z,1026.48
2019-05-12T06:12:50.921Z,1026.46
2019-05-12T06:13:50.065Z,1026.48
2019-05-12T06:14:55.372Z,1026.54
2019-05-12T06:15:50.003Z,1026.43
2019-05-12T06:16:49.931Z,1026.44
2019-05-12T06:17:49.894Z,1026.49
2019-05-12T06:18:49.858Z,1026.56
2019-05-12T06:19:49.820Z,1026.62
2019-05-12T06:20:49.799Z,1026.47
2019-05-12T06:21:49.750Z,1026.68
2019-05-12T06:22:54.635Z,1027.30
2019-05-12T06:23:49.653Z,1027.24
2019-05-12T06:24:56.934Z,1026.60
2019-05-12T06:25:51.621Z,1026.68
2019-05-12T06:26:59.520Z,1026.60
2019-05-12T06:27:51.041Z,1026.61
2019-05-12T06:28:49.461Z,1027.53
2019-05-12T06:29:54.456Z,1027.55
2019-05-12T06:30:50.271Z,1027.62
2019-05-12T06:31:49.341Z,1027.63
2019-05-12T06:32:51.729Z,1027.69
2019-05-12T06:33:49.273Z,1026.93
2019-05-12T06:34:50.858Z,1026.95
2019-05-12T06:35:49.218Z,1027.00
2019-05-12T06:36:49.168Z,1026.96
2019-05-12T06:37:57.385Z,1027.02
2019-05-12T06:38:49.078Z,1026.99
2019-05-12T06:39:50.914Z,1026.97
2019-05-12T06:40:49.020Z,1027.66
2019-05-12T06:41:48.960Z,1026.94
2019-05-12T06:42:53.974Z,1027.01
2019-05-12T06:43:48.886Z,1027.79
2019-05-12T06:44:53.540Z,1027.16
2019-05-12T06:45:48.817Z,1027.11
2019-05-12T06:46:53.559Z,1027.16
2019-05-12T06:47:49.760Z,1027.51
2019-05-12T06:48:48.721Z,1027.04
2019-05-12T06:49:53.367Z,1027.02
2019-05-12T06:50:48.626Z,1027.04
2019-05-12T06:51:53.719Z,1028.26
2019-05-12T06:52:49.105Z,1028.34
2019-05-12T06:53:48.536Z,1028.38
2019-05-12T06:54:51.404Z,1028.45
2019-05-12T06:55:48.435Z,1028.58
2019-05-12T06:56:50.077Z,1028.63
2019-05-12T06:57:50.244Z,1028.73
2019-05-12T06:58:48.325Z,1028.72
2019-05-12T06:59:51.418Z,1028.76
2019-05-12T07:00:48.249Z,1028.75
2019-05-12T07:01:49.803Z,1028.84
2019-05-12T07:02:52.248Z,1028.80
2019-05-12T07:03:48.137Z,1028.87
2019-05-12T07:04:54.343Z,1028.89
2019-05-12T07:05:48.066Z,1028.84
2019-05-12T07:06:49.844Z,1028.90
2019-05-12T07:07:47.990Z,1027.72
2019-05-12T07:09:01.329Z,1028.12
2019-05-12T07:09:54.150Z,1028.75
2019-05-12T07:10:57.420Z,1028.77
2019-05-12T07:11:53.358Z,1028.62
2019-05-12T07:12:58.938Z,1028.69
2019-05-12T07:14:00.943Z,1028.05
2019-05-12T07:14:48.991Z,1028.34
2019-05-12T07:15:47.732Z,1028.46
2019-05-12T07:16:53.307Z,1028.49
2019-05-12T07:17:49.886Z,1028.52
2019-05-12T07:18:47.609Z,1027.85
2019-05-12T07:19:47.577Z,1027.45
2019-05-12T07:20:47.558Z,1027.35
2019-05-12T07:21:50.778Z,1027.37
2019-05-12T07:22:48.642Z,1027.33
2019-05-12T07:23:47.438Z,1027.28
2019-05-12T07:24:50.574Z,1027.33
2019-05-12T07:25:47.385Z,1027.28
2019-05-12T07:26:48.140Z,1027.25
2019-05-12T07:27:55.256Z,1027.27
2019-05-12T07:28:47.260Z,1027.24
2019-05-12T07:29:47.223Z,1027.31
2019-05-12T07:30:47.189Z,1027.29
2019-05-12T07:31:47.179Z,1027.28
2019-05-12T07:32:51.285Z,1027.24
2019-05-12T07:33:47.073Z,1027.25
2019-05-12T07:34:47.036Z,1027.25
2019-05-12T07:35:47.001Z,1027.26
2019-05-12T07:36:46.969Z,1027.22
2019-05-12T07:37:46.960Z,1027.24
2019-05-12T07:38:46.891Z,1027.24
2019-05-12T07:39:49.378Z,1027.25
2019-05-12T07:40:46.821Z,1027.30
2019-05-12T07:41:50.845Z,1027.30
2019-05-12T07:42:46.745Z,1027.29
2019-05-12T07:43:50.485Z,1027.31
2019-05-12T07:44:46.667Z,1027.34
2019-05-12T07:45:46.624Z,1027.32
2019-05-12T07:46:49.521Z,1027.30
2019-05-12T07:47:46.547Z,1027.31
2019-05-12T07:48:50.770Z,1027.29
2019-05-12T07:49:46.503Z,1027.33
2019-05-12T07:50:50.395Z,1027.35
2019-05-12T07:51:46.402Z,1027.39
2019-05-12T07:52:46.357Z,1027.42
2019-05-12T07:53:54.621Z,1027.46
2019-05-12T07:54:46.282Z,1027.53
2019-05-12T07:55:49.364Z,1027.50
2019-05-12T07:56:46.206Z,1027.48
2019-05-12T07:57:55.138Z,1027.50
2019-05-12T07:58:51.343Z,1027.51
2019-05-12T07:59:46.084Z,1027.42
2019-05-12T08:00:46.052Z,1027.45
2019-05-12T08:01:51.941Z,1027.46
2019-05-12T08:02:45.975Z,1027.44
2019-05-12T08:03:45.935Z,1027.42
2019-05-12T08:04:45.927Z,1027.37
2019-05-12T08:05:45.851Z,1027.41
2019-05-12T08:06:46.757Z,1027.45
2019-05-12T08:07:45.781Z,1027.42
2019-05-12T08:08:51.125Z,1027.44
2019-05-12T08:09:45.705Z,1027.44
2019-05-12T08:10:51.219Z,1027.46
2019-05-12T08:11:45.616Z,1028.18
2019-05-12T08:12:45.586Z,1028.10
2019-05-12T08:13:45.546Z,1028.16
2019-05-12T08:14:45.535Z,1028.18
2019-05-12T08:15:49.038Z,1028.18
2019-05-12T08:16:45.424Z,1028.24
2019-05-12T08:17:49.265Z,1028.29
2019-05-12T08:18:45.347Z,1028.41
2019-05-12T08:19:45.307Z,1028.49
2019-05-12T08:20:45.306Z,1028.51
2019-05-12T08:21:49.174Z,1028.44
2019-05-12T08:22:45.205Z,1027.81
2019-05-12T08:23:45.168Z,1027.75
2019-05-12T08:24:48.007Z,1027.77
2019-05-12T08:25:45.091Z,1027.73
2019-05-12T08:26:49.667Z,1027.72
2019-05-12T08:27:49.449Z,1028.11
2019-05-12T08:28:44.981Z,1027.75
2019-05-12T08:29:44.945Z,1027.80
2019-05-12T08:30:51.835Z,1027.77
2019-05-12T08:31:44.902Z,1027.84
2019-05-12T08:32:44.847Z,1028.47
2019-05-12T08:33:44.806Z,1028.45
2019-05-12T08:34:44.773Z,1028.53
2019-05-12T08:35:44.732Z,1028.49
2019-05-12T08:36:52.953Z,1028.54
2019-05-12T08:37:44.680Z,1028.59
2019-05-12T08:38:44.626Z,1028.50
2019-05-12T08:39:44.586Z,1028.45
2019-05-12T08:40:50.689Z,1028.50
2019-05-12T08:41:44.522Z,1028.47
2019-05-12T08:42:44.506Z,1028.50
2019-05-12T08:43:47.117Z,1028.53
2019-05-12T08:44:44.433Z,1028.56
2019-05-12T08:45:44.579Z,1028.58
2019-05-12T08:46:52.038Z,1028.60
2019-05-12T08:47:44.315Z,1028.68
2019-05-12T08:48:44.731Z,1028.60
2019-05-12T08:49:51.057Z,1028.55
2019-05-12T08:50:46.197Z,1028.55
2019-05-12T08:51:44.342Z,1028.54
2019-05-12T08:52:44.434Z,1028.49
2019-05-12T08:53:44.162Z,1028.54
2019-05-12T08:54:45.424Z,1028.55
2019-05-12T08:55:44.041Z,1028.61
2019-05-12T08:56:44.005Z,1028.59
2019-05-12T08:57:49.370Z,1028.72
2019-05-12T08:58:50.439Z,1028.39
2019-05-12T08:59:44.202Z,1027.90
2019-05-12T09:00:48.481Z,1027.95
2019-05-12T09:01:43.916Z,1027.99
2019-05-12T09:02:46.101Z,1027.92
2019-05-12T09:03:44.291Z,1028.01
2019-05-12T09:04:51.533Z,1028.76
2019-05-12T09:05:44.551Z,1027.88
2019-05-12T09:06:43.685Z,1027.95
2019-05-12T09:07:43.708Z,1027.91
2019-05-12T09:08:48.825Z,1027.93
2019-05-12T09:09:43.917Z,1027.95
2019-05-12T09:10:45.185Z,1027.94
2019-05-12T09:11:44.047Z,1027.97
2019-05-12T09:12:44.158Z,1027.97
2019-05-12T09:13:43.584Z,1027.98
2019-05-12T09:14:46.117Z,1027.94
2019-05-12T09:15:43.751Z,1028.09
2019-05-12T09:16:43.964Z,1028.58
2019-05-12T09:17:52.487Z,1028.70
2019-05-12T09:18:43.617Z,1028.74
2019-05-12T09:19:43.707Z,1028.78
2019-05-12T09:20:48.724Z,1027.99
2019-05-12T09:21:44.256Z,1028.05
2019-05-12T09:22:43.341Z,1028.19
2019-05-12T09:23:45.414Z,1028.07
2019-05-12T09:24:44.109Z,1028.91
2019-05-12T09:25:45.095Z,1028.75
2019-05-12T09:26:43.370Z,1028.16
2019-05-12T09:27:47.617Z,1028.82
2019-05-12T09:28:49.877Z,1028.93
2019-05-12T09:29:43.595Z,1029.02
2019-05-12T09:30:47.643Z,1029.08
2019-05-12T09:31:44.057Z,1028.13
2019-05-12T09:32:48.031Z,1028.98
2019-05-12T09:33:44.567Z,1028.01
2019-05-12T09:34:44.770Z,1028.37
2019-05-12T09:35:43.833Z,1028.09
2019-05-12T09:36:44.209Z,1028.01
2019-05-12T09:37:44.139Z,1027.99
2019-05-12T09:38:44.015Z,1027.95
2019-05-12T09:39:47.245Z,1028.25
2019-05-12T09:40:43.788Z,1028.73
2019-05-12T09:41:48.588Z,1028.83
2019-05-12T09:42:44.051Z,1028.80
2019-05-12T09:43:46.264Z,1028.83
2019-05-12T09:44:43.891Z,1029.00
2019-05-12T09:45:52.232Z,1028.08
2019-05-12T09:46:44.045Z,1028.20
2019-05-12T09:47:43.626Z,1027.99
2019-05-12T09:48:48.458Z,1028.55
2019-05-12T09:49:44.311Z,1028.18
2019-05-12T09:50:45.891Z,1028.12
2019-05-12T09:51:45.245Z,1028.56
2019-05-12T09:52:44.088Z,1028.17
2019-05-12T09:53:50.383Z,1028.90
2019-05-12T09:54:43.902Z,1028.92
2019-05-12T09:55:43.800Z,1028.14
2019-05-12T09:56:44.095Z,1028.80
2019-05-12T09:57:42.953Z,1028.05
2019-05-12T09:58:43.592Z,1028.13
2019-05-12T09:59:45.882Z,1028.89
2019-05-12T10:00:43.448Z,1028.23
2019-05-12T10:01:45.723Z,1029.00
2019-05-12T10:02:43.629Z,1028.99
2019-05-12T10:03:43.714Z,1028.90
2019-05-12T10:04:43.667Z,1028.34
2019-05-12T10:05:44.007Z,1028.98
2019-05-12T10:06:44.290Z,1028.28
2019-05-12T10:07:41.617Z,1028.30
2019-05-12T10:08:43.450Z,1028.28
2019-05-12T10:09:43.915Z,1028.92
2019-05-12T10:10:44.615Z,1028.32
2019-05-12T10:11:41.515Z,1028.97
2019-05-12T10:12:46.203Z,1028.94
2019-05-12T10:13:41.413Z,1028.91
2019-05-12T10:14:45.857Z,1028.96
2019-05-12T10:15:41.349Z,1028.75
2019-05-12T10:16:45.542Z,1028.40
2019-05-12T10:17:43.323Z,1028.43
2019-05-12T10:18:45.402Z,1028.34
2019-05-12T10:19:43.266Z,1028.35
2019-05-12T10:20:41.190Z,1028.34
2019-05-12T10:21:41.154Z,1028.36
2019-05-12T10:22:43.518Z,1028.89
2019-05-12T10:23:43.493Z,1028.51
2019-05-12T10:24:52.145Z,1028.93
2019-05-12T10:25:41.018Z,1028.99
2019-05-12T10:26:45.758Z,1029.08
2019-05-12T10:27:40.954Z,1028.77
2019-05-12T10:28:45.330Z,1028.91
2019-05-12T10:29:40.916Z,1028.49
2019-05-12T10:30:40.860Z,1028.80
2019-05-12T10:31:40.828Z,1028.54
2019-05-12T10:32:40.798Z,1029.02
2019-05-12T10:33:43.138Z,1029.00
2019-05-12T10:34:40.751Z,1029.03
2019-05-12T10:35:40.702Z,1028.58
2019-05-12T10:36:44.871Z,1028.40
2019-05-12T10:37:40.628Z,1028.37
2019-05-12T10:38:40.597Z,1028.60
2019-05-12T10:39:40.589Z,1028.39
2019-05-12T10:40:40.538Z,1028.92
2019-05-12T10:41:40.504Z,1028.91
2019-05-12T10:42:46.048Z,1028.87
2019-05-12T10:43:40.441Z,1028.87
2019-05-12T10:44:40.913Z,1028.98
2019-05-12T10:45:40.391Z,1028.97
2019-05-12T10:46:42.429Z,1028.94
2019-05-12T10:47:40.307Z,1029.01
2019-05-12T10:48:40.281Z,1029.01
2019-05-12T10:49:40.254Z,1028.91
2019-05-12T10:50:40.243Z,1028.89
2019-05-12T10:51:40.179Z,1028.83
2019-05-12T10:52:40.156Z,1028.89
2019-05-12T10:53:40.132Z,1028.94
2019-05-12T10:54:40.096Z,1028.87
2019-05-12T10:55:40.061Z,1028.88
2019-05-12T10:56:40.051Z,1028.88
2019-05-12T10:57:39.993Z,1028.26
2019-05-12T10:58:39.967Z,1028.97
2019-05-12T10:59:45.270Z,1028.73
2019-05-12T11:00:39.950Z,1028.92
2019-05-12T11:01:47.283Z,1028.90
2019-05-12T11:02:39.848Z,1028.93
2019-05-12T11:03:42.857Z,1028.92
2019-05-12T11:04:41.299Z,1028.99
2019-05-12T11:05:39.753Z,1028.96
2019-05-12T11:06:43.941Z,1028.47
2019-05-12T11:07:39.725Z,1028.42
2019-05-12T11:08:41.278Z,1028.83
2019-05-12T11:09:39.632Z,1029.00
2019-05-12T11:10:39.599Z,1029.04
2019-05-12T11:11:43.610Z,1029.05
2019-05-12T11:12:39.576Z,1029.00
2019-05-12T11:13:40.237Z,1029.00
2019-05-12T11:14:39.480Z,1028.52
2019-05-12T11:15:44.403Z,1028.99
2019-05-12T11:16:41.845Z,1028.96
2019-05-12T11:17:40.216Z,1028.95
2019-05-12T11:18:39.376Z,1028.98
2019-05-12T11:19:40.940Z,1028.93
2019-05-12T11:20:39.305Z,1028.95
2019-05-12T11:21:39.271Z,1028.96
2019-05-12T11:22:39.264Z,1029.00
2019-05-12T11:23:39.205Z,1029.03
2019-05-12T11:24:39.179Z,1029.12
2019-05-12T11:25:39.151Z,1028.67
2019-05-12T11:26:39.121Z,1028.51
2019-05-12T11:27:39.109Z,1028.55
2019-05-12T11:28:39.078Z,1029.01
2019-05-12T11:29:46.011Z,1028.63
2019-05-12T11:30:39.000Z,1028.88
2019-05-12T11:31:38.967Z,1028.54
2019-05-12T11:32:38.943Z,1028.48
2019-05-12T11:33:38.911Z,1028.51
2019-05-12T11:34:38.903Z,1029.06
2019-05-12T11:35:38.849Z,1029.06
2019-05-12T11:36:38.813Z,1029.13
2019-05-12T11:37:38.793Z,1029.20
2019-05-12T11:38:38.760Z,1029.18
2019-05-12T11:39:44.285Z,1028.91
2019-05-12T11:40:38.687Z,1028.64
2019-05-12T11:41:38.656Z,1028.65
2019-05-12T11:42:38.630Z,1028.63
2019-05-12T11:43:38.599Z,1028.58
2019-05-12T11:44:38.592Z,1028.55
2019-05-12T11:45:38.538Z,1028.57
2019-05-12T11:46:38.499Z,1028.83
2019-05-12T11:47:38.470Z,1029.21
2019-05-12T11:48:40.315Z,1028.59
2019-05-12T11:49:38.434Z,1029.18
2019-05-12T11:50:40.404Z,1029.19
2019-05-12T11:51:38.346Z,1029.17
2019-05-12T11:52:38.307Z,1029.25
2019-05-12T11:53:38.272Z,1029.08
2019-05-12T11:54:41.174Z,1029.23
2019-05-12T11:55:38.238Z,1029.13
2019-05-12T11:56:40.252Z,1029.08
2019-05-12T11:57:38.171Z,1028.64
2019-05-12T11:58:41.267Z,1028.56
2019-05-12T11:59:38.083Z,1028.48
2019-05-12T12:00:38.079Z,1028.55
2019-05-12T12:01:39.684Z,1028.46
2019-05-12T12:02:37.993Z,1028.35
2019-05-12T12:03:37.984Z,1028.39
2019-05-12T12:04:37.923Z,1028.43